Sugar Land Regional Airport Houston US
ICAO: KSGR
IATA: SGR
Category: Medium
Scheduled Services: No

Elevation: 82 ft
TransAlt. 18000 ft.

Airport Communications:
HOUSTON APP/DEP:123.8
ASOS:118.125
CTAF:118.65
GND/CLNC DEL:121.4
TWR:118.65
UNICOM:122.95

KSGR Zoom In..

If you have problems with the map follow the link
https://www.worldairports.se/pages/airport.php?
ICAO=KSGR

Runways:

(A) RW 17 length 8000 ft width 100 ft
---- / hdg 170

(B) RW 35 length 8000 ft width 100 ft
ILS 110.70 / hdg 350

Location; KSGR
Day. 21 / Time. 06.53 Zulu
* Altimeter: 30.18
* Temperature: 19° c. 66.2°f.
* Wind from: 040° Speed 14 kn.
Dewpoint: 15° c.
Visibility: 10 Statute Miles.
Clouds: Overcast 6000 ft.

KSGR 210653Z AUTO 04014KT 10SM OVC060 19/15 A3018 RMK AO2 SLP221 T01940150


Wind From 040°
Speed 14 kn.

 
 
jpsmedia.com for Web Design worldairports.se 2018   terms of use